Time;durP1;ratioP1;P1;durP2;ratioP2;P2;SDS_P1;SDS_P2;PMS_P1;PMS_P2;Temp;Humidity;BMP_temperature;BMP_pressure;BME280_temperature;BME280_humidity;BME280_pressure;Samples;Min_cycle;Max_cycle;Signal;HPM_P1;HPM_P2
2023/07/17 00:01:06;;;;;;;13.20;8.50;;;;;;;26.58;48.56;100242.59;108047;1254;60644;-69
2023/07/17 00:03:33;;;;;;;13.60;9.40;;;;;;;26.63;48.62;100240.56;108001;1252;60136;-68
2023/07/17 00:06:01;;;;;;;11.60;8.80;;;;;;;26.51;48.79;100239.54;108065;1252;73615;-69
2023/07/17 00:08:28;;;;;;;14.10;9.20;;;;;;;26.47;48.81;100239.98;108283;1252;70845;-68
2023/07/17 00:10:57;;;;;;;16.50;9.60;;;;;;;26.37;49.21;100240.23;108062;1254;72697;-69
2023/07/17 00:13:24;;;;;;;18.30;9.50;;;;;;;26.24;49.79;100241.51;108136;1254;60454;-69
2023/07/17 00:15:52;;;;;;;19.00;9.90;;;;;;;26.27;49.71;100239.95;108137;1253;60112;-68
2023/07/17 00:18:19;;;;;;;15.00;9.80;;;;;;;26.29;49.62;100236.59;108040;1254;73130;-69
2023/07/17 00:20:47;;;;;;;10.50;7.90;;;;;;;26.35;49.39;100236.07;108100;1254;69963;-69
2023/07/17 00:23:14;;;;;;;16.10;9.70;;;;;;;26.41;48.98;100237.29;107969;1254;72346;-69
2023/07/17 00:25:42;;;;;;;14.40;9.00;;;;;;;26.46;48.94;100237.67;107987;1254;61651;-70
2023/07/17 00:28:09;;;;;;;15.90;10.70;;;;;;;26.46;48.77;100232.67;108293;1254;59587;-69
2023/07/17 00:30:38;;;;;;;15.80;9.80;;;;;;;26.34;49.18;100227.21;107925;1252;72955;-69
2023/07/17 00:33:05;;;;;;;13.40;9.30;;;;;;;26.36;48.94;100230.27;108401;1253;70274;-69
2023/07/17 00:35:33;;;;;;;20.30;9.70;;;;;;;26.23;49.47;100228.20;108118;1254;72706;-68
2023/07/17 00:38:01;;;;;;;17.70;10.50;;;;;;;26.18;49.41;100226.11;108072;1253;60936;-68
2023/07/17 00:40:28;;;;;;;17.50;10.30;;;;;;;26.13;49.70;100225.35;108001;1254;60458;-67
2023/07/17 00:42:58;;;;;;;16.30;10.10;;;;;;;26.11;49.82;100221.55;107963;1253;75821;-68
2023/07/17 00:45:27;;;;;;;13.10;8.20;;;;;;;26.21;49.65;100222.02;107924;1258;69935;-69
2023/07/17 00:47:55;;;;;;;15.50;9.60;;;;;;;26.14;49.50;100220.94;108015;1253;72704;-67
2023/07/17 00:50:22;;;;;;;14.10;10.10;;;;;;;26.17;49.49;100216.87;108094;1253;61777;-69
2023/07/17 00:52:50;;;;;;;12.90;9.10;;;;;;;26.11;49.54;100213.46;108085;1258;60569;-68
2023/07/17 00:55:17;;;;;;;14.10;10.20;;;;;;;26.08;49.54;100218.98;108105;1253;74330;-68
2023/07/17 00:57:47;;;;;;;13.10;8.90;;;;;;;26.05;49.70;100216.67;108161;1254;70298;-68
2023/07/17 01:00:14;;;;;;;15.30;10.50;;;;;;;26.05;49.68;100209.96;107890;1254;72690;-69
2023/07/17 01:02:42;;;;;;;20.00;10.90;;;;;;;26.01;49.76;100212.55;107960;1253;61663;-68
2023/07/17 01:05:10;;;;;;;18.00;10.50;;;;;;;25.76;50.47;100213.77;107948;1254;60069;-69
2023/07/17 01:07:39;;;;;;;16.00;10.50;;;;;;;25.60;51.00;100215.73;107971;1252;73328;-69
2023/07/17 01:10:07;;;;;;;15.80;11.10;;;;;;;25.59;51.03;100213.49;107926;1254;69923;-67
2023/07/17 01:12:35;;;;;;;17.80;10.50;;;;;;;25.56;51.12;100213.59;108089;1252;72717;-69
2023/07/17 01:15:04;;;;;;;14.70;10.40;;;;;;;25.64;50.99;100213.69;108078;1256;60919;-69
2023/07/17 01:17:33;;;;;;;14.00;10.70;;;;;;;25.61;50.95;100212.44;108127;1252;60509;-69
2023/07/17 01:20:00;;;;;;;15.20;10.10;;;;;;;25.56;50.98;100207.64;108117;1254;72627;-67
2023/07/17 01:22:29;;;;;;;17.30;10.60;;;;;;;25.47;51.15;100210.92;108148;1254;70287;-69
2023/07/17 01:24:57;;;;;;;16.20;10.70;;;;;;;25.42;51.41;100212.81;108085;1254;70997;-68
2023/07/17 01:27:24;;;;;;;13.90;10.90;;;;;;;25.38;51.56;100211.44;108125;1254;60458;-69
2023/07/17 01:29:52;;;;;;;14.80;10.10;;;;;;;25.37;51.48;100210.95;108184;1254;60295;-68
2023/07/17 01:32:21;;;;;;;14.90;11.00;;;;;;;25.34;51.58;100211.02;108167;1252;73940;-69
2023/07/17 01:34:48;;;;;;;20.40;11.80;;;;;;;25.35;51.34;100211.88;108223;1253;69290;-70
2023/07/17 01:37:17;;;;;;;20.40;12.20;;;;;;;25.15;51.83;100209.82;108165;1254;71586;-69
2023/07/17 01:39:45;;;;;;;17.10;12.00;;;;;;;25.09;51.92;100211.35;108358;1252;60429;-69
2023/07/17 01:42:12;;;;;;;18.10;11.90;;;;;;;25.16;52.01;100210.80;108038;1254;60430;-69
2023/07/17 01:44:39;;;;;;;16.20;11.00;;;;;;;25.13;52.05;100216.45;108506;1253;72656;-69
2023/07/17 01:47:07;;;;;;;17.00;12.30;;;;;;;25.21;51.94;100216.10;108373;1254;69054;-69
2023/07/17 01:49:34;;;;;;;15.30;10.40;;;;;;;25.19;52.15;100215.90;108518;1254;71399;-69
2023/07/17 01:52:04;;;;;;;18.50;11.90;;;;;;;25.12;52.17;100215.30;108861;1253;62202;-69
2023/07/17 01:54:32;;;;;;;21.70;13.50;;;;;;;25.17;52.08;100212.91;108084;1253;60395;-69
2023/07/17 01:56:59;;;;;;;20.00;11.90;;;;;;;25.26;51.88;100210.25;107954;1254;74236;-70
2023/07/17 01:59:27;;;;;;;15.30;11.90;;;;;;;25.23;51.89;100215.77;108049;1254;70035;-67
2023/07/17 02:01:54;;;;;;;17.50;11.80;;;;;;;25.19;51.99;100214.89;107998;1257;72720;-70
2023/07/17 02:04:22;;;;;;;21.00;12.90;;;;;;;25.19;52.02;100219.38;108103;1254;61677;-70
2023/07/17 02:06:49;;;;;;;22.20;12.70;;;;;;;25.15;52.17;100218.45;108262;1252;60146;-69
2023/07/17 02:09:17;;;;;;;18.80;10.10;;;;;;;25.13;52.28;100217.55;108174;1254;73877;-68
2023/07/17 02:11:44;;;;;;;20.10;12.50;;;;;;;25.18;52.09;100219.27;108153;1253;71935;-68
2023/07/17 02:14:11;;;;;;;21.30;12.20;;;;;;;25.09;52.28;100219.79;108073;1254;72616;-69
2023/07/17 02:16:39;;;;;;;17.00;12.30;;;;;;;25.03;52.53;100222.10;107936;1253;60463;-69
2023/07/17 02:19:06;;;;;;;20.40;12.50;;;;;;;25.10;52.46;100225.45;108076;1252;61785;-67
2023/07/17 02:21:34;;;;;;;14.90;11.50;;;;;;;25.03;52.58;100227.95;108007;1254;74388;-69
2023/07/17 02:24:02;;;;;;;16.00;12.60;;;;;;;25.00;52.65;100231.09;108120;1257;69152;-68
2023/07/17 02:26:29;;;;;;;16.00;12.90;;;;;;;25.03;52.78;100229.86;108020;1252;72991;-68
2023/07/17 02:28:57;;;;;;;17.30;11.80;;;;;;;24.97;52.99;100227.05;108581;1254;61653;-69
2023/07/17 02:31:24;;;;;;;16.80;13.80;;;;;;;24.82;53.27;100225.16;108892;1253;60011;-69
2023/07/17 02:33:52;;;;;;;20.50;14.10;;;;;;;24.82;53.24;100230.95;108104;1253;72006;-68
2023/07/17 02:36:19;;;;;;;21.30;13.50;;;;;;;24.78;53.41;100234.70;108195;1254;70483;-68
2023/07/17 02:38:47;;;;;;;21.20;14.40;;;;;;;24.94;53.16;100238.80;108114;1253;72652;-68
2023/07/17 02:41:14;;;;;;;17.00;13.30;;;;;;;24.96;53.21;100240.10;108118;1252;61658;-69
2023/07/17 02:43:42;;;;;;;17.70;14.40;;;;;;;24.96;53.25;100239.89;108050;1253;60661;-68
2023/07/17 02:46:10;;;;;;;17.70;13.60;;;;;;;24.98;53.20;100242.44;108121;1252;73966;-67
2023/07/17 02:48:37;;;;;;;18.80;13.40;;;;;;;25.04;53.19;100241.77;108119;1254;68681;-70
2023/07/17 02:51:07;;;;;;;25.40;14.00;;;;;;;25.15;53.08;100245.95;108013;1258;71462;-68
2023/07/17 02:53:35;;;;;;;18.90;14.60;;;;;;;25.12;53.23;100244.84;107993;1254;61767;-69
2023/07/17 02:56:03;;;;;;;17.40;14.30;;;;;;;25.17;53.17;100247.58;108073;1253;60135;-68
2023/07/17 02:58:32;;;;;;;20.60;13.90;;;;;;;25.16;53.43;100248.05;108082;1254;72872;-67
2023/07/17 03:00:59;;;;;;;20.00;13.10;;;;;;;25.15;53.49;100252.45;108109;1252;69383;-70
2023/07/17 03:03:27;;;;;;;25.00;14.70;;;;;;;25.30;53.29;100254.73;108091;1253;71761;-68
2023/07/17 03:05:57;;;;;;;20.30;14.00;;;;;;;25.38;53.21;100252.20;108036;1254;61681;-68
2023/07/17 03:08:25;;;;;;;17.10;13.50;;;;;;;25.45;53.08;100249.56;108480;1253;59975;-70
2023/07/17 03:10:53;;;;;;;20.80;14.40;;;;;;;25.61;52.83;100246.55;108919;1253;74455;-69
2023/07/17 03:13:21;;;;;;;21.30;14.80;;;;;;;25.63;52.84;100248.66;107951;1253;70569;-69
2023/07/17 03:15:48;;;;;;;18.90;14.30;;;;;;;25.75;52.71;100248.75;108265;1253;72872;-68
2023/07/17 03:18:16;;;;;;;19.60;13.80;;;;;;;25.80;52.57;100252.02;108109;1258;60342;-68
2023/07/17 03:20:44;;;;;;;18.50;13.80;;;;;;;25.87;52.33;100253.18;108109;1255;60433;-69
2023/07/17 03:23:11;;;;;;;20.80;13.80;;;;;;;25.97;52.19;100252.16;107968;1252;73725;-70
2023/07/17 03:25:42;;;;;;;20.00;13.70;;;;;;;26.11;52.02;100254.02;108029;1254;70459;-69
2023/07/17 03:28:10;;;;;;;17.00;14.60;;;;;;;26.25;51.76;100257.95;108150;1253;72633;-69
2023/07/17 03:30:38;;;;;;;26.60;14.10;;;;;;;26.36;51.62;100251.80;108003;1253;60200;-69
2023/07/17 03:33:06;;;;;;;15.50;12.40;;;;;;;26.35;51.57;100249.20;107971;1254;60727;-69
2023/07/17 03:35:34;;;;;;;26.30;14.40;;;;;;;26.44;51.31;100249.38;108036;1254;74318;-70
2023/07/17 03:38:01;;;;;;;20.10;13.40;;;;;;;26.50;51.36;100249.18;108050;1254;70497;-71
2023/07/17 03:40:29;;;;;;;26.10;12.70;;;;;;;26.65;51.14;100248.85;108203;1254;73089;-70
2023/07/17 03:42:56;;;;;;;24.50;13.00;;;;;;;26.74;51.23;100247.86;108099;1254;61862;-69
2023/07/17 03:45:23;;;;;;;12.50;9.90;;;;;;;26.88;50.94;100248.84;108007;1254;60493;-69
2023/07/17 03:47:51;;;;;;;18.60;12.10;;;;;;;27.00;50.78;100250.35;108080;1255;74286;-69
2023/07/17 03:50:19;;;;;;;18.70;11.70;;;;;;;27.28;50.41;100250.07;107961;1252;70147;-69
2023/07/17 03:52:46;;;;;;;18.10;11.60;;;;;;;27.44;49.96;100250.25;108066;1252;72441;-69
2023/07/17 03:55:15;;;;;;;17.70;11.80;;;;;;;27.59;49.66;100258.17;107998;1254;61679;-70
2023/07/17 03:57:42;;;;;;;16.50;12.90;;;;;;;27.84;49.55;100260.17;108008;1253;60491;-71
2023/07/17 04:00:14;;;;;;;20.70;12.10;;;;;;;28.07;48.94;100261.23;108078;1254;73151;-69
2023/07/17 04:02:44;;;;;;;16.10;13.00;;;;;;;28.37;48.39;100255.34;108015;1259;69274;-68
2023/07/17 04:05:28;;;;;;;22.00;13.00;;;;;;;28.89;47.92;100251.82;108241;1253;71858;-70
2023/07/17 04:07:57;;;;;;;19.40;12.40;;;;;;;29.12;47.70;100253.08;108168;1254;60819;-71
2023/07/17 04:10:27;;;;;;;22.50;11.80;;;;;;;29.27;47.59;100258.98;108025;1254;60454;-69
2023/07/17 04:12:55;;;;;;;;;;;;;;;29.61;47.04;100255.56;108023;1253;73834;-70
2023/07/17 04:15:23;;;;;;;29.60;12.40;;;;;;;29.98;46.17;100256.90;108039;1254;70153;-69
2023/07/17 04:17:50;;;;;;;15.00;10.90;;;;;;;30.40;45.61;100257.41;108040;1254;72728;-70
2023/07/17 04:20:19;;;;;;;20.00;11.20;;;;;;;30.82;44.93;100257.45;108096;1257;61768;-70
2023/07/17 04:22:46;;;;;;;17.90;11.10;;;;;;;31.07;44.13;100259.43;108063;1254;60545;-70
2023/07/17 04:25:16;;;;;;;20.90;10.90;;;;;;;31.27;43.72;100264.73;108859;1253;74802;-70
2023/07/17 04:27:44;;;;;;;16.90;11.20;;;;;;;31.40;42.84;100263.64;108718;1254;70239;-70
2023/07/17 04:30:11;;;;;;;14.10;10.90;;;;;;;31.52;42.93;100264.14;108015;1256;72748;-70
2023/07/17 04:32:39;;;;;;;13.50;10.30;;;;;;;31.59;43.04;100261.35;108137;1254;60530;-70
2023/07/17 04:35:07;;;;;;;15.40;11.30;;;;;;;31.67;42.67;100258.08;108061;1259;60318;-70
2023/07/17 04:37:35;;;;;;;22.00;12.20;;;;;;;31.65;42.74;100259.86;108092;1258;72947;-71
2023/07/17 04:40:05;;;;;;;14.60;9.90;;;;;;;31.83;42.51;100257.06;108219;1253;68862;-70
2023/07/17 04:42:32;;;;;;;15.90;10.20;;;;;;;31.84;42.18;100256.04;108137;1259;71241;-70
2023/07/17 04:45:00;;;;;;;15.00;9.80;;;;;;;31.97;42.00;100252.45;107897;1257;60377;-70
2023/07/17 04:47:28;;;;;;;13.70;9.70;;;;;;;32.06;41.38;100249.34;108081;1254;60415;-70
2023/07/17 04:49:57;;;;;;;15.90;10.10;;;;;;;32.14;41.06;100251.35;108208;1252;72380;-69
2023/07/17 04:52:25;;;;;;;12.40;8.80;;;;;;;32.37;40.85;100248.59;108107;1254;70052;-69
2023/07/17 04:54:53;;;;;;;14.60;8.70;;;;;;;32.41;40.56;100247.23;107978;1254;73161;-69
2023/07/17 04:57:21;;;;;;;15.50;9.20;;;;;;;32.47;40.15;100244.84;107923;1259;60686;-70
2023/07/17 04:59:48;;;;;;;11.50;8.80;;;;;;;32.52;39.68;100246.84;108057;1254;60500;-70
2023/07/17 05:02:16;;;;;;;16.50;9.50;;;;;;;32.67;39.97;100249.15;107979;1254;74117;-69
2023/07/17 05:04:44;;;;;;;14.30;8.20;;;;;;;33.03;39.57;100247.08;108588;1254;60533;-71
2023/07/17 05:07:11;;;;;;;12.00;8.40;;;;;;;33.33;38.41;100248.33;108008;1258;72707;-69
2023/07/17 05:09:39;;;;;;;10.20;7.60;;;;;;;33.55;38.20;100249.13;107887;1254;60562;-70
2023/07/17 05:12:07;;;;;;;11.40;8.50;;;;;;;33.83;37.79;100241.73;108885;1254;60537;-70
2023/07/17 05:14:35;;;;;;;15.80;8.00;;;;;;;34.29;36.84;100238.84;108046;1254;64953;-69
2023/07/17 05:17:03;;;;;;;8.20;7.10;;;;;;;34.61;36.24;100238.00;108271;1254;60401;-70
2023/07/17 05:19:30;;;;;;;11.90;6.60;;;;;;;34.92;35.19;100237.14;108089;1254;63979;-72
2023/07/17 05:21:58;;;;;;;12.20;7.50;;;;;;;35.12;34.87;100238.62;108099;1254;60408;-71
2023/07/17 05:24:25;;;;;;;11.10;7.30;;;;;;;35.42;34.23;100240.29;108031;1254;60447;-71
2023/07/17 05:26:53;;;;;;;9.70;6.70;;;;;;;35.61;33.84;100240.72;108028;1252;63616;-69
2023/07/17 05:29:20;;;;;;;8.80;6.10;;;;;;;35.77;33.89;100244.07;108036;1253;61353;-70
2023/07/17 05:31:48;;;;;;;9.50;6.50;;;;;;;36.08;33.42;100244.89;108119;1254;63767;-69
2023/07/17 05:34:16;;;;;;;7.90;6.50;;;;;;;36.41;32.73;100239.60;108152;1258;59608;-70
2023/07/17 05:36:43;;;;;;;8.10;6.00;;;;;;;36.86;32.05;100241.73;108103;1254;60289;-69
2023/07/17 05:39:11;;;;;;;9.20;6.00;;;;;;;37.23;31.61;100236.65;108148;1254;63879;-70
2023/07/17 05:41:38;;;;;;;10.20;6.50;;;;;;;37.66;30.91;100239.34;107927;1254;60360;-69
2023/07/17 05:44:06;;;;;;;10.00;6.10;;;;;;;38.06;30.27;100235.88;108025;1254;62713;-71
2023/07/17 05:46:34;;;;;;;6.80;5.70;;;;;;;38.25;29.87;100238.80;108634;1254;59244;-71
2023/07/17 05:49:02;;;;;;;8.60;5.40;;;;;;;38.47;29.84;100239.89;108578;1252;60232;-70
2023/07/17 05:51:31;;;;;;;7.40;5.50;;;;;;;38.71;29.49;100235.20;109127;1254;64893;-71
2023/07/17 05:53:58;;;;;;;8.70;5.30;;;;;;;38.96;28.77;100234.81;108039;1254;61394;-70
2023/07/17 05:56:26;;;;;;;7.40;4.60;;;;;;;39.12;28.46;100233.90;108032;1254;63542;-71
2023/07/17 05:58:53;;;;;;;8.20;5.40;;;;;;;39.21;28.37;100233.16;108039;1254;60364;-70
2023/07/17 06:01:20;;;;;;;7.10;5.00;;;;;;;39.47;28.38;100232.56;107867;1254;60528;-71
2023/07/17 06:03:48;;;;;;;8.10;4.90;;;;;;;39.76;27.97;100230.34;108049;1254;63597;-70
2023/07/17 06:06:15;;;;;;;6.80;4.60;;;;;;;39.81;27.79;100237.86;107998;1254;72769;-70
2023/07/17 06:08:42;;;;;;;8.30;4.20;;;;;;;39.97;27.24;100231.32;108050;1254;62984;-70
2023/07/17 06:11:10;;;;;;;8.00;4.60;;;;;;;40.25;26.71;100229.40;107945;1257;60187;-70
2023/07/17 06:13:37;;;;;;;7.90;4.30;;;;;;;40.46;26.69;100228.16;107994;1254;60431;-71
2023/07/17 06:16:05;;;;;;;7.70;4.50;;;;;;;40.76;26.02;100226.85;108015;1254;65408;-71
2023/07/17 06:18:32;;;;;;;5.90;4.50;;;;;;;40.97;24.66;100229.75;107861;1254;61589;-70
2023/07/17 06:21:00;;;;;;;6.40;4.10;;;;;;;40.99;24.62;100230.65;108019;1257;63730;-71
2023/07/17 06:23:28;;;;;;;5.80;3.80;;;;;;;41.07;24.17;100234.53;108035;1254;60401;-71
2023/07/17 06:25:55;;;;;;;4.30;3.60;;;;;;;41.10;23.97;100232.84;108045;1256;59121;-71
2023/07/17 06:28:23;;;;;;;8.10;4.20;;;;;;;41.26;24.19;100233.29;108002;1253;64946;-70
2023/07/17 06:30:51;;;;;;;9.60;4.40;;;;;;;41.40;24.62;100230.88;107904;1254;61314;-71
2023/07/17 06:33:21;;;;;;;9.20;4.20;;;;;;;41.32;24.54;100229.61;108060;1254;64138;-71
2023/07/17 06:35:49;;;;;;;9.40;4.30;;;;;;;41.34;24.39;100231.30;108023;1254;60231;-70
2023/07/17 06:38:16;;;;;;;6.20;3.90;;;;;;;41.35;24.34;100233.96;108019;1257;60353;-71
2023/07/17 06:40:43;;;;;;;19.50;7.80;;;;;;;41.17;24.52;100240.80;108132;1254;63727;-70
2023/07/17 06:43:11;;;;;;;7.80;4.40;;;;;;;41.07;24.54;100236.34;107993;1254;60405;-72
2023/07/17 06:45:39;;;;;;;7.50;4.40;;;;;;;40.88;24.50;100234.98;107888;1257;62456;-70
2023/07/17 06:48:07;;;;;;;211.90;53.10;;;;;;;40.94;24.32;100231.77;108018;1254;60319;-71
2023/07/17 06:50:34;;;;;;;16.10;5.80;;;;;;;40.99;24.61;100234.48;108104;1254;60279;-70
2023/07/17 06:53:02;;;;;;;8.80;4.60;;;;;;;41.08;24.36;100236.83;107961;1254;64127;-70
2023/07/17 06:55:29;;;;;;;6.20;3.90;;;;;;;41.32;24.10;100239.11;107940;1254;71154;-70
2023/07/17 06:57:57;;;;;;;4.60;3.80;;;;;;;41.56;23.83;100237.37;107941;1255;63848;-72
2023/07/17 07:00:24;;;;;;;6.10;4.20;;;;;;;41.82;23.94;100241.52;107956;1254;60434;-71
2023/07/17 07:02:51;;;;;;;10.50;4.30;;;;;;;41.79;24.01;100242.65;107989;1257;60533;-71
2023/07/17 07:05:19;;;;;;;6.40;4.20;;;;;;;41.46;24.07;100241.94;107965;1254;63776;-71
2023/07/17 07:07:46;;;;;;;8.80;4.40;;;;;;;41.05;24.23;100240.70;107969;1254;60255;-71
2023/07/17 07:10:14;;;;;;;6.30;4.10;;;;;;;40.87;24.29;100238.52;108081;1254;62434;-71
2023/07/17 07:12:41;;;;;;;7.50;4.40;;;;;;;40.68;24.85;100239.04;107979;1254;59167;-71
2023/07/17 07:15:10;;;;;;;8.50;4.40;;;;;;;40.62;24.81;100237.28;108011;1257;60374;-71
2023/07/17 07:17:37;;;;;;;7.70;4.50;;;;;;;40.58;25.03;100240.31;107926;1253;76110;-71
2023/07/17 07:20:06;;;;;;;10.70;4.90;;;;;;;40.83;25.06;100243.35;108006;1254;61422;-71
2023/07/17 07:22:33;;;;;;;7.40;4.20;;;;;;;41.04;24.68;100248.30;107983;1258;62466;-69
2023/07/17 07:25:01;;;;;;;8.20;4.40;;;;;;;41.24;23.77;100251.39;108030;1258;60620;-73
2023/07/17 07:27:31;;;;;;;6.50;4.10;;;;;;;41.31;23.54;100248.17;108032;1252;60443;-70
2023/07/17 07:29:58;;;;;;;7.70;4.40;;;;;;;41.28;23.37;100247.02;107751;1254;64892;-71
2023/07/17 07:32:26;;;;;;;8.50;4.20;;;;;;;41.20;23.79;100244.11;107970;1259;60902;-71
2023/07/17 07:34:53;;;;;;;11.60;4.70;;;;;;;41.27;23.67;100242.10;108028;1253;63783;-71
2023/07/17 07:37:21;;;;;;;6.40;4.10;;;;;;;41.20;23.89;100241.13;108004;1257;60814;-72
2023/07/17 07:39:48;;;;;;;6.80;4.40;;;;;;;41.28;23.90;100243.93;108038;1254;60409;-69
2023/07/17 07:42:16;;;;;;;9.60;4.10;;;;;;;41.60;23.66;100242.22;108073;1255;64946;-71
2023/07/17 07:44:44;;;;;;;7.90;4.50;;;;;;;41.79;23.22;100240.72;107971;1259;60951;-72
2023/07/17 07:47:11;;;;;;;8.80;4.60;;;;;;;41.89;23.27;100240.66;107979;1254;63722;-72
2023/07/17 07:49:39;;;;;;;7.80;4.40;;;;;;;41.83;23.58;100238.33;107895;1259;60344;-70
2023/07/17 07:52:07;;;;;;;6.40;4.60;;;;;;;41.84;23.53;100235.02;108689;1253;59218;-73
2023/07/17 07:54:34;;;;;;;6.90;4.50;;;;;;;42.01;23.44;100239.24;108004;1259;65126;-71
2023/07/17 07:57:02;;;;;;;6.20;4.20;;;;;;;42.20;23.35;100237.09;108012;1254;61688;-71
2023/07/17 07:59:29;;;;;;;7.10;4.80;;;;;;;42.39;22.80;100234.66;107928;1253;62648;-70
2023/07/17 08:02:02;;;;;;;7.00;4.40;;;;;;;42.67;22.71;100235.41;107986;1252;59647;-71
2023/07/17 08:04:29;;;;;;;10.00;4.30;;;;;;;43.00;22.52;100229.42;107988;1255;60335;-70
2023/07/17 08:06:56;;;;;;;7.40;4.20;;;;;;;43.34;22.51;100229.80;107941;1254;64909;-71
2023/07/17 08:09:24;;;;;;;7.50;4.20;;;;;;;43.60;22.07;100229.67;107931;1255;60545;-72
2023/07/17 08:11:55;;;;;;;7.00;4.60;;;;;;;43.74;21.51;100227.89;108005;1254;63855;-72
2023/07/17 08:14:22;;;;;;;7.20;4.30;;;;;;;43.62;21.58;100226.74;108157;1256;59171;-70
2023/07/17 08:16:50;;;;;;;6.70;4.30;;;;;;;43.49;21.97;100224.48;108125;1255;60316;-71
2023/07/17 08:19:18;;;;;;;10.40;4.20;;;;;;;43.48;21.89;100222.54;108011;1257;63721;-71
2023/07/17 08:21:45;;;;;;;9.30;4.50;;;;;;;43.50;21.97;100222.86;108007;1254;61445;-70
2023/07/17 08:24:13;;;;;;;5.90;3.80;;;;;;;43.49;21.52;100222.11;108146;1254;63860;-70
2023/07/17 08:26:43;;;;;;;6.70;4.20;;;;;;;43.60;21.42;100222.69;108041;1255;59735;-71
2023/07/17 08:29:11;;;;;;;6.50;4.30;;;;;;;43.74;21.29;100217.08;107972;1257;60396;-71
2023/07/17 08:31:39;;;;;;;13.80;4.30;;;;;;;44.01;21.13;100220.39;107943;1252;67231;-71
2023/07/17 08:34:06;;;;;;;8.00;4.40;;;;;;;44.28;20.91;100218.90;108124;1256;60468;-70
2023/07/17 08:36:34;;;;;;;9.00;4.50;;;;;;;44.52;20.95;100221.71;107985;1254;63794;-71
2023/07/17 08:39:02;;;;;;;11.60;4.60;;;;;;;44.76;20.72;100224.73;107944;1259;60319;-71
2023/07/17 08:41:29;;;;;;;6.60;3.80;;;;;;;44.81;20.53;100227.16;107971;1257;60520;-71
2023/07/17 08:46:15;;;;;;;6.50;3.70;;;;;;;43.10;21.75;100232.42;104838;1289;601648;-71
2023/07/17 08:48:47;;;;;;;7.90;4.10;;;;;;;44.15;20.89;100228.05;107239;1269;59153;-72
2023/07/17 08:51:15;;;;;;;9.70;3.90;;;;;;;44.40;20.63;100222.90;107266;1266;59240;-71
2023/07/17 08:53:44;;;;;;;4.40;3.30;;;;;;;44.48;20.53;100226.84;107211;1265;62039;-72
2023/07/17 08:56:12;;;;;;;5.20;4.00;;;;;;;44.64;19.93;100228.16;107211;1266;61487;-70
2023/07/17 08:58:42;;;;;;;5.00;3.70;;;;;;;44.78;20.05;100227.80;107175;1266;62467;-70
2023/07/17 09:01:10;;;;;;;5.50;3.80;;;;;;;45.04;20.48;100228.45;107147;1263;59269;-72
2023/07/17 09:03:37;;;;;;;6.60;3.80;;;;;;;45.19;20.02;100228.23;107224;1263;59256;-72
2023/07/17 09:06:05;;;;;;;4.80;3.60;;;;;;;45.12;20.06;100228.35;107296;1264;62120;-71
2023/07/17 09:08:33;;;;;;;5.00;3.70;;;;;;;44.96;19.78;100232.23;107277;1263;61932;-70
2023/07/17 09:11:08;;;;;;;6.30;3.70;;;;;;;44.78;19.74;100232.52;108591;1262;63703;-71
2023/07/17 09:13:39;;;;;;;5.40;3.50;;;;;;;44.73;19.89;100234.34;107447;1264;59528;-71
2023/07/17 09:16:20;;;;;;;5.70;3.60;;;;;;;44.73;20.02;100234.62;107351;1263;59654;-70
2023/07/17 09:18:48;;;;;;;5.10;3.90;;;;;;;44.48;19.98;100234.38;107763;1256;62906;-71
2023/07/17 09:21:25;;;;;;;6.90;3.90;;;;;;;44.21;20.46;100230.72;107888;1257;60357;-70
2023/07/17 09:23:54;;;;;;;6.20;3.70;;;;;;;44.08;20.86;100227.84;107730;1257;62445;-71
2023/07/17 09:26:23;;;;;;;10.70;4.00;;;;;;;44.09;20.95;100225.90;107749;1257;59083;-71
2023/07/17 09:28:55;;;;;;;3.90;3.50;;;;;;;44.16;20.95;100222.79;107628;1256;59551;-71
2023/07/17 09:31:29;;;;;;;7.50;3.80;;;;;;;44.27;20.53;100220.89;107743;1257;64117;-74
2023/07/17 09:34:06;;;;;;;5.90;3.60;;;;;;;44.17;20.41;100218.13;107773;1257;61269;-71
2023/07/17 09:36:33;;;;;;;7.50;4.20;;;;;;;44.18;20.27;100215.02;107714;1260;63815;-72
2023/07/17 09:39:04;;;;;;;7.00;3.90;;;;;;;44.34;20.02;100215.23;107794;1257;59215;-71
2023/07/17 09:41:32;;;;;;;7.60;3.60;;;;;;;44.57;19.63;100212.61;107648;1257;59220;-71
2023/07/17 09:44:03;;;;;;;7.30;3.60;;;;;;;44.67;19.58;100209.86;107892;1257;62912;-71
2023/07/17 09:46:32;;;;;;;12.00;4.50;;;;;;;44.59;19.22;100205.83;107686;1257;61542;-72
2023/07/17 09:49:00;;;;;;;7.80;4.40;;;;;;;44.39;19.49;100201.91;107712;1256;62497;-71
2023/07/17 09:51:29;;;;;;;5.50;3.80;;;;;;;44.18;19.13;100206.86;107516;1257;59205;-70
2023/07/17 09:53:59;;;;;;;;;;;;;;;44.19;19.28;100204.14;108187;1258;60084;-71
2023/07/17 09:56:28;;;;;;;5.50;3.90;;;;;;;44.48;19.15;100197.56;107769;1257;64192;-71
2023/07/17 09:59:17;;;;;;;7.60;4.10;;;;;;;44.71;19.05;100197.52;108214;1257;61421;-70
2023/07/17 10:01:48;;;;;;;6.40;3.70;;;;;;;45.11;18.77;100199.48;107788;1257;64321;-71
2023/07/17 10:04:17;;;;;;;6.00;4.00;;;;;;;45.50;18.39;100200.49;107678;1257;59656;-71
2023/07/17 10:06:44;;;;;;;8.30;4.30;;;;;;;45.57;18.39;100192.39;107738;1255;59662;-71
2023/07/17 10:09:13;;;;;;;7.90;4.10;;;;;;;45.46;18.67;100191.67;107858;1257;63605;-70
2023/07/17 10:11:40;;;;;;;8.40;4.00;;;;;;;45.60;18.58;100190.48;107921;1257;72103;-72
2023/07/17 10:14:08;;;;;;;5.80;3.80;;;;;;;45.89;18.86;100190.08;107784;1256;63728;-72
2023/07/17 10:16:35;;;;;;;6.70;4.10;;;;;;;46.13;18.68;100195.02;107728;1256;59666;-71
2023/07/17 10:19:03;;;;;;;7.40;4.60;;;;;;;46.31;18.34;100190.12;107733;1262;59569;-70
2023/07/17 10:21:30;;;;;;;4.50;4.00;;;;;;;46.20;17.82;100192.00;107826;1256;64813;-70
2023/07/17 10:24:04;;;;;;;7.10;4.10;;;;;;;45.97;17.82;100191.23;108114;1256;60164;-72
2023/07/17 10:26:31;;;;;;;11.70;4.40;;;;;;;45.70;18.45;100184.31;108038;1254;62945;-70
2023/07/17 10:29:00;;;;;;;4.70;3.80;;;;;;;45.30;18.57;100180.75;108053;1253;59742;-73
2023/07/17 10:31:29;;;;;;;6.00;4.00;;;;;;;45.11;18.80;100175.77;108067;1252;60966;-71
2023/07/17 10:34:03;;;;;;;6.20;3.80;;;;;;;44.84;18.88;100170.89;108025;1254;62928;-73
2023/07/17 10:36:39;;;;;;;5.80;4.00;;;;;;;44.56;19.28;100174.07;108103;1256;60110;-71
2023/07/17 10:39:07;;;;;;;7.30;4.40;;;;;;;44.41;19.60;100172.36;108125;1253;64267;-71
2023/07/17 10:41:37;;;;;;;6.00;4.10;;;;;;;44.31;19.64;100170.66;108099;1253;59656;-71
2023/07/17 10:44:07;;;;;;;9.30;4.20;;;;;;;44.12;20.16;100171.95;108117;1256;59525;-72
2023/07/17 10:46:46;;;;;;;14.30;5.00;;;;;;;44.00;20.38;100171.61;108089;1254;64185;-72
2023/07/17 10:49:15;;;;;;;8.30;4.50;;;;;;;43.90;20.47;100172.04;108088;1253;61704;-71
2023/07/17 10:51:44;;;;;;;8.00;5.30;;;;;;;43.75;20.37;100171.20;108089;1254;63709;-72
2023/07/17 10:54:12;;;;;;;5.90;4.70;;;;;;;43.54;20.48;100169.05;108147;1254;59618;-71
2023/07/17 10:56:41;;;;;;;7.10;4.50;;;;;;;43.46;20.73;100165.42;108087;1252;59512;-71
2023/07/17 10:59:08;;;;;;;6.40;4.20;;;;;;;43.45;20.75;100166.42;108476;1253;64562;-73
2023/07/17 11:01:36;;;;;;;8.80;4.90;;;;;;;43.44;20.43;100165.26;108091;1254;60095;-70
2023/07/17 11:04:09;;;;;;;5.10;4.60;;;;;;;43.41;20.36;100164.48;108081;1254;63799;-72
2023/07/17 11:06:37;;;;;;;8.80;4.60;;;;;;;43.27;20.65;100164.79;108092;1254;60699;-71
2023/07/17 11:09:04;;;;;;;6.90;4.70;;;;;;;43.11;20.75;100166.53;108143;1253;57852;-70
2023/07/17 11:11:32;;;;;;;6.20;4.70;;;;;;;43.12;20.98;100168.36;108085;1254;63557;-72
2023/07/17 11:14:00;;;;;;;7.70;4.60;;;;;;;43.15;21.28;100170.10;108106;1255;61444;-72
2023/07/17 11:16:28;;;;;;;5.20;4.40;;;;;;;43.32;21.07;100170.95;108055;1254;63745;-71